This is the latest recevied weather packets stored in our database for station/object M0UPS-13. If no packets are shown the sender has not sent any weather packets the latest 10 day(s).
| Time | Temp. | Humidity | Pressure | Rain* | Wind** | Luminosity | Snow |
|---|---|---|---|---|---|---|---|
| 1777975503 | 17.78° C | 53% | 1013.3 hPa | 0 mm | - | 281 W/m² | - |
| 1777975202 | 17.22° C | 56% | 1013 hPa | 0 mm | - | 745 W/m² | - |
| 1777974902 | 16.11° C | 59% | 1013.4 hPa | 0 mm | - | 866 W/m² | - |
| 1777974602 | 15.56° C | 62% | 1013.1 hPa | 0 mm | - | 308 W/m² | - |
| 1777974302 | 16.11° C | 60% | 1013.3 hPa | 0 mm | - | 468 W/m² | - |
| 1777974002 | 16.67° C | 59% | 1013.3 hPa | 0 mm | - | 306 W/m² | - |
| 1777973702 | 16.11° C | 63% | 1013.4 hPa | 0 mm | - | 697 W/m² | - |
| 1777973402 | 15.56° C | 63% | 1013.2 hPa | 0 mm | - | 677 W/m² | - |
| 1777973103 | 15° C | 63% | 1013.3 hPa | 0 mm | - | 665 W/m² | - |
| 1777972802 | 14.44° C | 68% | 1013.2 hPa | 0 mm | - | 436 W/m² | - |
| 1777972502 | 14.44° C | 68% | 1013.5 hPa | 0 mm | - | 231 W/m² | - |
| 1777972202 | 14.44° C | 67% | 1013.4 hPa | 0 mm | - | 236 W/m² | - |
| 1777971902 | 14.44° C | 65% | 1013.4 hPa | 0 mm | - | 273 W/m² | - |
| 1777971602 | 13.89° C | 69% | 1013.5 hPa | 0 mm | - | 297 W/m² | - |
| 1777971302 | 13.89° C | 69% | 1013.5 hPa | 0 mm | - | 244 W/m² | - |
| 1777971003 | 13.33° C | 69% | 1013.6 hPa | 0 mm | - | 260 W/m² | - |
| 1777970702 | 13.33° C | 70% | 1013.6 hPa | 0 mm | - | 239 W/m² | - |
| 1777970402 | 12.78° C | 72% | 1013.6 hPa | 0 mm | - | 207 W/m² | - |
| 1777970102 | 12.78° C | 71% | 1013.8 hPa | 0 mm | - | 177 W/m² | - |
| 1777969802 | 13.33° C | 71% | 1013.5 hPa | 0 mm | - | 112 W/m² | - |
| 1777969502 | 13.33° C | 71% | 1013.6 hPa | 0 mm | - | 114 W/m² | - |
| 1777969202 | 13.33° C | 71% | 1013.5 hPa | 0 mm | - | 148 W/m² | - |
| 1777968902 | 13.33° C | 72% | 1013.8 hPa | 0 mm | - | 143 W/m² | - |
| 1777968602 | 13.33° C | 73% | 1013.7 hPa | 0 mm | - | 186 W/m² | - |
| 1777968302 | 13.33° C | 73% | 1013.5 hPa | 0 mm | - | 161 W/m² | - |
* Rain latest hour (hover to see other rain measurements)
** Current wind speed in m/s (hover to see current wind gust speed)